Airfield :
LOGIN :

Register | Disclaimer

   EN    FR    IT 

 










Legend :    VFR   Marginal VFR   IFR   Intensive IFR   Very Intensive IFR
Visi :
Ceiling :
>= 8 km
>= 3000ft
5 to 8 km
1000 to 3000 ft
1500m to 5 km
500 to 1000 ft
800 to 1500m
200 to 500 ft
< 800m
< 200 ft
Symbols :   Thunderstorms  Fog  Heavy snow  Heavy precipitations  Wind > 20 kt
SIGMETs :     Misc.  Thunderstorms  Icing  Turbulence  Mountain Waves  Volcanic Ashes







- Airport Elevation : 1106 ft
- Download approach charts


LFSO - Nancy / Ochey

CURRENT METAR :
  • 112330Z AUTO 15002KT 8000 FEW003 M02/M02 Q1023 BECMG 0500 FZFG VV///

EXPIRED METARs :
  • 112300Z AUTO 00000KT 0650 0450 R20/0350D FZFG BKN003 M02/M02 Q1023 BECMG 0500 FZFG VV///
  • 112230Z AUTO 26003KT 7000 NSC M01/M02 Q1024 BECMG 0500 FZFG VV///
  • 112200Z AUTO 04004KT CAVOK M00/M01 Q1023 BECMG 0500 FZFG VV///
  • 112130Z AUTO 04002KT CAVOK M01/M01 Q1023 BECMG 0500 FZFG VV///
  • 112100Z AUTO 05001KT CAVOK M01/M01 Q1024 BECMG 0500 FZFG VV///

TAF TAF LFSO
Valid from the 11 at 21:00 until the 12 at 21:00 UTC


112000Z 1121/1221 VRB03KT 3000 BR NSC
BECMG 1121/1122 0500 FZFG VV///
BECMG 1209/1211 4000 BR BKN007
BECMG 1212/1214 9999 NSW BKN015
BECMG 1217/1219 4000 BR BKN007
No reported NOTAMs for that airfield.



MET'MAP, your aeronautical weather chart ! - Copyright ORBIFLY December 2007 - Disclaimer

ORBIFLY MET'MAP TEAM :

Programming & Development : Alexandra Zaïnal
Concept & Development : Baudouin d'Aumeries
Co-Development & Prog : Marc-Olivier Méhu
Technical & hardware support : Manuel Goepfert

Contact : metmap@orbifly.com




SOURCES & CREDITS :

   NOAA